sensor_id;sensor_type;location;lat;lon;timestamp;P1;durP1;ratioP1;P2;durP2;ratioP2
17052;SDS011;8643;48.824;11.422;2024-01-30T00:00:33;20.17;;;7.80;;
17052;SDS011;8643;48.824;11.422;2024-01-30T00:03:02;13.57;;;7.60;;
17052;SDS011;8643;48.824;11.422;2024-01-30T00:05:31;16.77;;;8.50;;
17052;SDS011;8643;48.824;11.422;2024-01-30T00:07:59;15.50;;;7.70;;
17052;SDS011;8643;48.824;11.422;2024-01-30T00:10:28;15.07;;;7.87;;
17052;SDS011;8643;48.824;11.422;2024-01-30T00:12:57;15.13;;;6.97;;
17052;SDS011;8643;48.824;11.422;2024-01-30T00:15:27;14.80;;;7.63;;
17052;SDS011;8643;48.824;11.422;2024-01-30T00:17:55;20.60;;;8.60;;
17052;SDS011;8643;48.824;11.422;2024-01-30T00:20:24;17.00;;;8.70;;
17052;SDS011;8643;48.824;11.422;2024-01-30T00:22:52;19.17;;;8.40;;
17052;SDS011;8643;48.824;11.422;2024-01-30T00:25:20;17.03;;;7.97;;
17052;SDS011;8643;48.824;11.422;2024-01-30T00:27:49;17.23;;;8.10;;
17052;SDS011;8643;48.824;11.422;2024-01-30T00:30:18;18.67;;;8.40;;
17052;SDS011;8643;48.824;11.422;2024-01-30T00:32:49;16.27;;;8.10;;
17052;SDS011;8643;48.824;11.422;2024-01-30T00:35:17;17.97;;;8.17;;
17052;SDS011;8643;48.824;11.422;2024-01-30T00:37:46;19.47;;;8.73;;
17052;SDS011;8643;48.824;11.422;2024-01-30T00:40:15;16.80;;;8.63;;
17052;SDS011;8643;48.824;11.422;2024-01-30T00:42:44;18.03;;;8.60;;
17052;SDS011;8643;48.824;11.422;2024-01-30T00:45:13;15.90;;;8.17;;
17052;SDS011;8643;48.824;11.422;2024-01-30T00:47:42;16.77;;;7.60;;
17052;SDS011;8643;48.824;11.422;2024-01-30T00:50:12;12.60;;;7.33;;
17052;SDS011;8643;48.824;11.422;2024-01-30T00:52:41;13.10;;;7.30;;
17052;SDS011;8643;48.824;11.422;2024-01-30T00:55:12;12.90;;;7.40;;
17052;SDS011;8643;48.824;11.422;2024-01-30T00:57:40;15.33;;;6.83;;
17052;SDS011;8643;48.824;11.422;2024-01-30T01:00:12;17.03;;;7.50;;
17052;SDS011;8643;48.824;11.422;2024-01-30T01:02:43;14.83;;;7.40;;
17052;SDS011;8643;48.824;11.422;2024-01-30T01:05:13;15.40;;;7.33;;
17052;SDS011;8643;48.824;11.422;2024-01-30T01:07:42;18.43;;;7.97;;
17052;SDS011;8643;48.824;11.422;2024-01-30T01:10:10;16.80;;;8.07;;
17052;SDS011;8643;48.824;11.422;2024-01-30T01:12:40;15.00;;;7.23;;
17052;SDS011;8643;48.824;11.422;2024-01-30T01:15:08;17.00;;;7.83;;
17052;SDS011;8643;48.824;11.422;2024-01-30T01:17:38;16.20;;;8.13;;
17052;SDS011;8643;48.824;11.422;2024-01-30T01:20:07;17.10;;;7.57;;
17052;SDS011;8643;48.824;11.422;2024-01-30T01:22:38;13.23;;;7.17;;
17052;SDS011;8643;48.824;11.422;2024-01-30T01:25:08;13.50;;;7.00;;
17052;SDS011;8643;48.824;11.422;2024-01-30T01:27:36;12.37;;;6.17;;
17052;SDS011;8643;48.824;11.422;2024-01-30T01:30:08;14.73;;;6.50;;
17052;SDS011;8643;48.824;11.422;2024-01-30T01:32:41;14.10;;;6.57;;
17052;SDS011;8643;48.824;11.422;2024-01-30T01:35:15;18.40;;;6.77;;
17052;SDS011;8643;48.824;11.422;2024-01-30T01:37:45;14.37;;;6.30;;
17052;SDS011;8643;48.824;11.422;2024-01-30T01:40:13;13.63;;;6.70;;
17052;SDS011;8643;48.824;11.422;2024-01-30T01:42:43;14.23;;;6.30;;
17052;SDS011;8643;48.824;11.422;2024-01-30T01:45:11;12.87;;;6.13;;
17052;SDS011;8643;48.824;11.422;2024-01-30T01:47:39;18.07;;;6.93;;
17052;SDS011;8643;48.824;11.422;2024-01-30T01:50:08;10.97;;;6.07;;
17052;SDS011;8643;48.824;11.422;2024-01-30T01:52:37;16.40;;;7.80;;
17052;SDS011;8643;48.824;11.422;2024-01-30T01:55:08;13.67;;;6.87;;
17052;SDS011;8643;48.824;11.422;2024-01-30T01:57:37;14.87;;;7.53;;
17052;SDS011;8643;48.824;11.422;2024-01-30T02:00:06;12.80;;;6.23;;
17052;SDS011;8643;48.824;11.422;2024-01-30T02:02:36;15.67;;;7.30;;
17052;SDS011;8643;48.824;11.422;2024-01-30T02:05:07;14.63;;;7.10;;
17052;SDS011;8643;48.824;11.422;2024-01-30T02:07:36;17.87;;;8.17;;
17052;SDS011;8643;48.824;11.422;2024-01-30T02:10:07;16.00;;;8.07;;
17052;SDS011;8643;48.824;11.422;2024-01-30T02:12:37;15.00;;;7.90;;
17052;SDS011;8643;48.824;11.422;2024-01-30T02:15:05;15.10;;;7.73;;
17052;SDS011;8643;48.824;11.422;2024-01-30T02:17:34;15.27;;;7.33;;
17052;SDS011;8643;48.824;11.422;2024-01-30T02:20:03;12.87;;;6.83;;
17052;SDS011;8643;48.824;11.422;2024-01-30T02:22:34;15.20;;;6.87;;
17052;SDS011;8643;48.824;11.422;2024-01-30T02:25:05;19.67;;;8.67;;
17052;SDS011;8643;48.824;11.422;2024-01-30T02:27:34;18.13;;;9.33;;
17052;SDS011;8643;48.824;11.422;2024-01-30T02:30:03;15.80;;;8.90;;
17052;SDS011;8643;48.824;11.422;2024-01-30T02:32:33;19.70;;;9.03;;
17052;SDS011;8643;48.824;11.422;2024-01-30T02:35:01;16.63;;;8.40;;
17052;SDS011;8643;48.824;11.422;2024-01-30T02:37:31;23.10;;;9.73;;
17052;SDS011;8643;48.824;11.422;2024-01-30T02:40:01;16.70;;;8.47;;
17052;SDS011;8643;48.824;11.422;2024-01-30T02:42:29;17.07;;;8.10;;
17052;SDS011;8643;48.824;11.422;2024-01-30T02:44:58;19.47;;;8.23;;
17052;SDS011;8643;48.824;11.422;2024-01-30T02:47:26;19.03;;;7.80;;
17052;SDS011;8643;48.824;11.422;2024-01-30T02:49:55;18.23;;;8.40;;
17052;SDS011;8643;48.824;11.422;2024-01-30T02:52:24;15.27;;;8.63;;
17052;SDS011;8643;48.824;11.422;2024-01-30T02:54:52;16.30;;;8.20;;
17052;SDS011;8643;48.824;11.422;2024-01-30T02:57:22;19.33;;;8.63;;
17052;SDS011;8643;48.824;11.422;2024-01-30T02:59:51;20.40;;;8.60;;
17052;SDS011;8643;48.824;11.422;2024-01-30T03:02:19;20.30;;;9.20;;
17052;SDS011;8643;48.824;11.422;2024-01-30T03:04:47;17.20;;;8.33;;
17052;SDS011;8643;48.824;11.422;2024-01-30T03:07:16;20.23;;;9.50;;
17052;SDS011;8643;48.824;11.422;2024-01-30T03:09:44;20.33;;;9.20;;
17052;SDS011;8643;48.824;11.422;2024-01-30T03:12:13;19.30;;;9.07;;
17052;SDS011;8643;48.824;11.422;2024-01-30T03:14:43;23.00;;;9.93;;
17052;SDS011;8643;48.824;11.422;2024-01-30T03:17:12;18.93;;;8.80;;
17052;SDS011;8643;48.824;11.422;2024-01-30T03:19:40;17.73;;;9.60;;
17052;SDS011;8643;48.824;11.422;2024-01-30T03:22:09;17.27;;;9.40;;
17052;SDS011;8643;48.824;11.422;2024-01-30T03:24:38;17.73;;;8.93;;
17052;SDS011;8643;48.824;11.422;2024-01-30T03:27:07;24.13;;;10.10;;
17052;SDS011;8643;48.824;11.422;2024-01-30T03:29:35;19.67;;;9.10;;
17052;SDS011;8643;48.824;11.422;2024-01-30T03:32:06;20.27;;;9.00;;
17052;SDS011;8643;48.824;11.422;2024-01-30T03:34:34;24.60;;;9.90;;
17052;SDS011;8643;48.824;11.422;2024-01-30T03:37:03;21.67;;;9.27;;
17052;SDS011;8643;48.824;11.422;2024-01-30T03:39:31;22.57;;;9.63;;
17052;SDS011;8643;48.824;11.422;2024-01-30T03:41:59;20.50;;;8.67;;
17052;SDS011;8643;48.824;11.422;2024-01-30T03:44:28;22.23;;;10.07;;
17052;SDS011;8643;48.824;11.422;2024-01-30T03:46:57;20.83;;;10.17;;
17052;SDS011;8643;48.824;11.422;2024-01-30T03:49:27;20.80;;;9.83;;
17052;SDS011;8643;48.824;11.422;2024-01-30T03:51:56;19.60;;;8.97;;
17052;SDS011;8643;48.824;11.422;2024-01-30T03:54:24;17.00;;;9.23;;
17052;SDS011;8643;48.824;11.422;2024-01-30T03:56:53;21.70;;;9.97;;
17052;SDS011;8643;48.824;11.422;2024-01-30T03:59:21;25.80;;;11.40;;
17052;SDS011;8643;48.824;11.422;2024-01-30T04:01:50;19.20;;;9.83;;
17052;SDS011;8643;48.824;11.422;2024-01-30T04:04:19;18.77;;;9.60;;
17052;SDS011;8643;48.824;11.422;2024-01-30T04:06:50;21.23;;;9.50;;
17052;SDS011;8643;48.824;11.422;2024-01-30T04:09:18;20.00;;;9.87;;
17052;SDS011;8643;48.824;11.422;2024-01-30T04:11:47;20.87;;;9.90;;
17052;SDS011;8643;48.824;11.422;2024-01-30T04:14:15;25.17;;;10.73;;
17052;SDS011;8643;48.824;11.422;2024-01-30T04:16:44;21.30;;;10.53;;
17052;SDS011;8643;48.824;11.422;2024-01-30T04:19:12;20.17;;;10.07;;
17052;SDS011;8643;48.824;11.422;2024-01-30T04:21:41;23.77;;;9.97;;
17052;SDS011;8643;48.824;11.422;2024-01-30T04:24:11;20.97;;;10.30;;
17052;SDS011;8643;48.824;11.422;2024-01-30T04:26:39;22.17;;;9.43;;
17052;SDS011;8643;48.824;11.422;2024-01-30T04:29:08;19.17;;;9.23;;
17052;SDS011;8643;48.824;11.422;2024-01-30T04:31:36;26.03;;;10.30;;
17052;SDS011;8643;48.824;11.422;2024-01-30T04:34:05;21.97;;;9.60;;
17052;SDS011;8643;48.824;11.422;2024-01-30T04:36:33;22.47;;;10.37;;
17052;SDS011;8643;48.824;11.422;2024-01-30T04:39:02;22.33;;;9.80;;
17052;SDS011;8643;48.824;11.422;2024-01-30T04:41:32;17.50;;;8.97;;
17052;SDS011;8643;48.824;11.422;2024-01-30T04:44:00;18.70;;;8.97;;
17052;SDS011;8643;48.824;11.422;2024-01-30T04:46:29;20.17;;;9.37;;
17052;SDS011;8643;48.824;11.422;2024-01-30T04:48:57;18.63;;;8.70;;
17052;SDS011;8643;48.824;11.422;2024-01-30T04:51:25;20.80;;;9.37;;
17052;SDS011;8643;48.824;11.422;2024-01-30T04:53:54;21.80;;;10.20;;
17052;SDS011;8643;48.824;11.422;2024-01-30T04:56:23;21.40;;;10.53;;
17052;SDS011;8643;48.824;11.422;2024-01-30T04:58:53;21.80;;;10.50;;
17052;SDS011;8643;48.824;11.422;2024-01-30T05:01:21;24.80;;;12.43;;
17052;SDS011;8643;48.824;11.422;2024-01-30T05:03:50;22.30;;;10.43;;
17052;SDS011;8643;48.824;11.422;2024-01-30T05:06:23;20.90;;;10.43;;
17052;SDS011;8643;48.824;11.422;2024-01-30T05:08:53;26.37;;;11.70;;
17052;SDS011;8643;48.824;11.422;2024-01-30T05:11:21;33.93;;;13.50;;
17052;SDS011;8643;48.824;11.422;2024-01-30T05:13:49;30.60;;;12.57;;
17052;SDS011;8643;48.824;11.422;2024-01-30T05:16:19;28.53;;;13.17;;
17052;SDS011;8643;48.824;11.422;2024-01-30T05:18:48;27.17;;;12.77;;
17052;SDS011;8643;48.824;11.422;2024-01-30T05:21:16;25.50;;;12.13;;
17052;SDS011;8643;48.824;11.422;2024-01-30T05:23:45;20.97;;;10.80;;
17052;SDS011;8643;48.824;11.422;2024-01-30T05:26:13;22.13;;;10.70;;
17052;SDS011;8643;48.824;11.422;2024-01-30T05:28:42;25.47;;;11.27;;
17052;SDS011;8643;48.824;11.422;2024-01-30T05:31:11;22.40;;;10.87;;
17052;SDS011;8643;48.824;11.422;2024-01-30T05:33:41;28.80;;;12.50;;
17052;SDS011;8643;48.824;11.422;2024-01-30T05:36:11;27.67;;;12.40;;
17052;SDS011;8643;48.824;11.422;2024-01-30T05:38:40;29.27;;;11.87;;
17052;SDS011;8643;48.824;11.422;2024-01-30T05:41:09;24.80;;;11.20;;
17052;SDS011;8643;48.824;11.422;2024-01-30T05:43:37;32.97;;;13.50;;
17052;SDS011;8643;48.824;11.422;2024-01-30T05:46:06;27.87;;;12.80;;
17052;SDS011;8643;48.824;11.422;2024-01-30T05:48:35;33.20;;;12.70;;
17052;SDS011;8643;48.824;11.422;2024-01-30T05:51:05;29.43;;;13.23;;
17052;SDS011;8643;48.824;11.422;2024-01-30T05:53:35;31.67;;;14.30;;
17052;SDS011;8643;48.824;11.422;2024-01-30T05:56:05;28.03;;;12.20;;
17052;SDS011;8643;48.824;11.422;2024-01-30T05:58:34;34.13;;;15.30;;
17052;SDS011;8643;48.824;11.422;2024-01-30T06:01:06;34.20;;;14.03;;
17052;SDS011;8643;48.824;11.422;2024-01-30T06:03:35;42.90;;;16.10;;
17052;SDS011;8643;48.824;11.422;2024-01-30T06:06:06;37.87;;;16.17;;
17052;SDS011;8643;48.824;11.422;2024-01-30T06:08:35;35.07;;;15.83;;
17052;SDS011;8643;48.824;11.422;2024-01-30T06:11:04;32.90;;;15.37;;
17052;SDS011;8643;48.824;11.422;2024-01-30T06:13:33;32.30;;;15.23;;
17052;SDS011;8643;48.824;11.422;2024-01-30T06:16:01;33.63;;;14.60;;
17052;SDS011;8643;48.824;11.422;2024-01-30T06:18:30;34.97;;;15.40;;
17052;SDS011;8643;48.824;11.422;2024-01-30T06:20:59;35.27;;;15.20;;
17052;SDS011;8643;48.824;11.422;2024-01-30T06:23:28;36.27;;;14.43;;
17052;SDS011;8643;48.824;11.422;2024-01-30T06:25:57;33.23;;;15.10;;
17052;SDS011;8643;48.824;11.422;2024-01-30T06:28:25;36.60;;;14.70;;
17052;SDS011;8643;48.824;11.422;2024-01-30T06:30:54;32.07;;;14.37;;
17052;SDS011;8643;48.824;11.422;2024-01-30T06:33:24;30.87;;;13.70;;
17052;SDS011;8643;48.824;11.422;2024-01-30T06:35:52;34.93;;;14.63;;
17052;SDS011;8643;48.824;11.422;2024-01-30T06:38:21;32.70;;;14.10;;
17052;SDS011;8643;48.824;11.422;2024-01-30T06:40:50;29.60;;;13.40;;
17052;SDS011;8643;48.824;11.422;2024-01-30T06:43:19;29.13;;;13.70;;
17052;SDS011;8643;48.824;11.422;2024-01-30T06:45:48;39.77;;;15.60;;
17052;SDS011;8643;48.824;11.422;2024-01-30T06:48:18;35.97;;;15.23;;
17052;SDS011;8643;48.824;11.422;2024-01-30T06:50:46;33.03;;;14.63;;
17052;SDS011;8643;48.824;11.422;2024-01-30T06:53:15;34.80;;;15.57;;
17052;SDS011;8643;48.824;11.422;2024-01-30T06:55:44;32.20;;;15.33;;
17052;SDS011;8643;48.824;11.422;2024-01-30T06:58:14;34.40;;;14.83;;
17052;SDS011;8643;48.824;11.422;2024-01-30T07:00:43;33.13;;;14.67;;
17052;SDS011;8643;48.824;11.422;2024-01-30T07:03:12;37.97;;;16.80;;
17052;SDS011;8643;48.824;11.422;2024-01-30T07:05:40;41.53;;;16.47;;
17052;SDS011;8643;48.824;11.422;2024-01-30T07:08:09;41.03;;;17.57;;
17052;SDS011;8643;48.824;11.422;2024-01-30T07:10:37;41.13;;;18.43;;
17052;SDS011;8643;48.824;11.422;2024-01-30T07:13:06;39.30;;;17.83;;
17052;SDS011;8643;48.824;11.422;2024-01-30T07:15:37;43.90;;;19.07;;
17052;SDS011;8643;48.824;11.422;2024-01-30T07:18:06;45.67;;;19.67;;
17052;SDS011;8643;48.824;11.422;2024-01-30T07:20:36;48.33;;;19.80;;
17052;SDS011;8643;48.824;11.422;2024-01-30T07:23:08;42.30;;;19.47;;
17052;SDS011;8643;48.824;11.422;2024-01-30T07:25:40;37.60;;;17.03;;
17052;SDS011;8643;48.824;11.422;2024-01-30T07:28:09;44.23;;;19.13;;
17052;SDS011;8643;48.824;11.422;2024-01-30T07:30:40;40.03;;;17.30;;
17052;SDS011;8643;48.824;11.422;2024-01-30T07:33:08;45.83;;;18.77;;
17052;SDS011;8643;48.824;11.422;2024-01-30T07:35:37;43.30;;;19.17;;
17052;SDS011;8643;48.824;11.422;2024-01-30T07:38:06;50.63;;;20.67;;
17052;SDS011;8643;48.824;11.422;2024-01-30T07:40:34;44.43;;;21.33;;
17052;SDS011;8643;48.824;11.422;2024-01-30T07:43:03;49.03;;;22.10;;
17052;SDS011;8643;48.824;11.422;2024-01-30T07:45:32;56.03;;;23.93;;
17052;SDS011;8643;48.824;11.422;2024-01-30T07:48:01;54.83;;;23.80;;
17052;SDS011;8643;48.824;11.422;2024-01-30T07:50:31;54.53;;;24.30;;
17052;SDS011;8643;48.824;11.422;2024-01-30T07:53:00;59.60;;;26.57;;
17052;SDS011;8643;48.824;11.422;2024-01-30T07:55:29;56.87;;;24.73;;
17052;SDS011;8643;48.824;11.422;2024-01-30T07:57:59;58.83;;;25.77;;
17052;SDS011;8643;48.824;11.422;2024-01-30T08:00:28;55.23;;;25.67;;
17052;SDS011;8643;48.824;11.422;2024-01-30T08:02:56;63.13;;;28.77;;
17052;SDS011;8643;48.824;11.422;2024-01-30T08:05:27;73.83;;;30.07;;
17052;SDS011;8643;48.824;11.422;2024-01-30T08:07:55;68.73;;;31.73;;
17052;SDS011;8643;48.824;11.422;2024-01-30T08:10:24;67.50;;;29.97;;
17052;SDS011;8643;48.824;11.422;2024-01-30T08:12:52;67.37;;;28.07;;
17052;SDS011;8643;48.824;11.422;2024-01-30T08:15:21;55.10;;;27.33;;
17052;SDS011;8643;48.824;11.422;2024-01-30T08:17:49;53.50;;;27.47;;
17052;SDS011;8643;48.824;11.422;2024-01-30T08:20:22;49.30;;;26.17;;
17052;SDS011;8643;48.824;11.422;2024-01-30T08:22:52;53.47;;;25.40;;
17052;SDS011;8643;48.824;11.422;2024-01-30T08:25:21;50.67;;;25.30;;
17052;SDS011;8643;48.824;11.422;2024-01-30T08:27:49;45.00;;;23.50;;
17052;SDS011;8643;48.824;11.422;2024-01-30T08:30:18;42.67;;;23.20;;
17052;SDS011;8643;48.824;11.422;2024-01-30T08:32:47;44.57;;;23.47;;
17052;SDS011;8643;48.824;11.422;2024-01-30T08:35:15;43.97;;;23.60;;
17052;SDS011;8643;48.824;11.422;2024-01-30T08:37:44;53.10;;;26.43;;
17052;SDS011;8643;48.824;11.422;2024-01-30T08:40:14;48.83;;;25.13;;
17052;SDS011;8643;48.824;11.422;2024-01-30T08:42:43;44.10;;;23.87;;
17052;SDS011;8643;48.824;11.422;2024-01-30T08:45:11;41.07;;;20.67;;
17052;SDS011;8643;48.824;11.422;2024-01-30T08:47:40;37.43;;;20.27;;
17052;SDS011;8643;48.824;11.422;2024-01-30T08:50:08;33.47;;;19.40;;
17052;SDS011;8643;48.824;11.422;2024-01-30T08:52:37;33.47;;;19.73;;
17052;SDS011;8643;48.824;11.422;2024-01-30T08:55:06;40.33;;;20.47;;
17052;SDS011;8643;48.824;11.422;2024-01-30T08:57:37;36.50;;;18.70;;
17052;SDS011;8643;48.824;11.422;2024-01-30T09:00:06;33.77;;;17.43;;
17052;SDS011;8643;48.824;11.422;2024-01-30T09:02:35;36.57;;;18.57;;
17052;SDS011;8643;48.824;11.422;2024-01-30T09:05:04;29.73;;;18.73;;
17052;SDS011;8643;48.824;11.422;2024-01-30T09:07:33;31.87;;;18.37;;
17052;SDS011;8643;48.824;11.422;2024-01-30T09:10:02;32.13;;;18.13;;
17052;SDS011;8643;48.824;11.422;2024-01-30T09:12:32;28.87;;;17.13;;
17052;SDS011;8643;48.824;11.422;2024-01-30T09:15:02;27.63;;;17.87;;
17052;SDS011;8643;48.824;11.422;2024-01-30T09:17:32;32.17;;;17.20;;
17052;SDS011;8643;48.824;11.422;2024-01-30T09:20:00;28.97;;;17.43;;
17052;SDS011;8643;48.824;11.422;2024-01-30T09:22:29;29.27;;;17.87;;
17052;SDS011;8643;48.824;11.422;2024-01-30T09:24:58;28.60;;;17.87;;
17052;SDS011;8643;48.824;11.422;2024-01-30T09:27:26;30.20;;;18.37;;
17052;SDS011;8643;48.824;11.422;2024-01-30T09:29:55;29.30;;;17.73;;
17052;SDS011;8643;48.824;11.422;2024-01-30T09:32:25;28.73;;;17.90;;
17052;SDS011;8643;48.824;11.422;2024-01-30T09:34:53;29.70;;;17.93;;
17052;SDS011;8643;48.824;11.422;2024-01-30T09:37:22;29.23;;;17.83;;
17052;SDS011;8643;48.824;11.422;2024-01-30T09:39:53;30.17;;;18.50;;
17052;SDS011;8643;48.824;11.422;2024-01-30T09:42:25;31.50;;;19.43;;
17052;SDS011;8643;48.824;11.422;2024-01-30T09:45:00;34.43;;;18.83;;
17052;SDS011;8643;48.824;11.422;2024-01-30T09:47:32;33.00;;;20.17;;
17052;SDS011;8643;48.824;11.422;2024-01-30T09:50:09;34.93;;;20.33;;
17052;SDS011;8643;48.824;11.422;2024-01-30T09:52:39;35.13;;;21.00;;
17052;SDS011;8643;48.824;11.422;2024-01-30T09:55:08;33.43;;;20.93;;
17052;SDS011;8643;48.824;11.422;2024-01-30T09:57:38;39.20;;;19.77;;
17052;SDS011;8643;48.824;11.422;2024-01-30T10:00:07;35.17;;;21.03;;
17052;SDS011;8643;48.824;11.422;2024-01-30T10:02:40;36.13;;;19.97;;
17052;SDS011;8643;48.824;11.422;2024-01-30T10:05:09;38.77;;;20.10;;
17052;SDS011;8643;48.824;11.422;2024-01-30T10:07:55;42.33;;;21.17;;
17052;SDS011;8643;48.824;11.422;2024-01-30T10:10:25;35.20;;;20.17;;
17052;SDS011;8643;48.824;11.422;2024-01-30T10:12:54;35.30;;;20.10;;
17052;SDS011;8643;48.824;11.422;2024-01-30T10:15:22;34.73;;;19.33;;
17052;SDS011;8643;48.824;11.422;2024-01-30T10:17:56;32.90;;;18.73;;
17052;SDS011;8643;48.824;11.422;2024-01-30T10:20:25;34.03;;;19.70;;
17052;SDS011;8643;48.824;11.422;2024-01-30T10:22:54;33.63;;;19.83;;
17052;SDS011;8643;48.824;11.422;2024-01-30T10:25:25;31.90;;;18.80;;
17052;SDS011;8643;48.824;11.422;2024-01-30T10:27:53;35.90;;;20.57;;
17052;SDS011;8643;48.824;11.422;2024-01-30T10:30:22;31.00;;;19.50;;
17052;SDS011;8643;48.824;11.422;2024-01-30T10:32:51;31.33;;;19.07;;
17052;SDS011;8643;48.824;11.422;2024-01-30T10:35:21;30.50;;;19.10;;
17052;SDS011;8643;48.824;11.422;2024-01-30T10:37:50;33.20;;;18.77;;
17052;SDS011;8643;48.824;11.422;2024-01-30T10:40:23;33.03;;;18.73;;
17052;SDS011;8643;48.824;11.422;2024-01-30T10:42:57;36.07;;;19.00;;
17052;SDS011;8643;48.824;11.422;2024-01-30T10:45:31;32.37;;;19.70;;
17052;SDS011;8643;48.824;11.422;2024-01-30T10:47:59;32.73;;;18.87;;
17052;SDS011;8643;48.824;11.422;2024-01-30T10:50:33;28.97;;;17.00;;
17052;SDS011;8643;48.824;11.422;2024-01-30T10:53:16;29.57;;;18.63;;
17052;SDS011;8643;48.824;11.422;2024-01-30T10:55:46;29.97;;;17.83;;
17052;SDS011;8643;48.824;11.422;2024-01-30T10:58:19;31.17;;;18.37;;
17052;SDS011;8643;48.824;11.422;2024-01-30T11:00:48;31.07;;;17.70;;
17052;SDS011;8643;48.824;11.422;2024-01-30T11:03:18;30.17;;;18.23;;
17052;SDS011;8643;48.824;11.422;2024-01-30T11:05:50;28.40;;;16.33;;
17052;SDS011;8643;48.824;11.422;2024-01-30T11:08:23;27.07;;;15.47;;
17052;SDS011;8643;48.824;11.422;2024-01-30T11:10:55;28.40;;;16.77;;
17052;SDS011;8643;48.824;11.422;2024-01-30T11:13:28;30.47;;;16.57;;
17052;SDS011;8643;48.824;11.422;2024-01-30T11:16:00;28.17;;;16.03;;
17052;SDS011;8643;48.824;11.422;2024-01-30T11:18:30;27.77;;;16.83;;
17052;SDS011;8643;48.824;11.422;2024-01-30T11:21:01;28.60;;;15.73;;
17052;SDS011;8643;48.824;11.422;2024-01-30T11:23:33;24.40;;;14.80;;
17052;SDS011;8643;48.824;11.422;2024-01-30T11:26:03;23.23;;;14.60;;
17052;SDS011;8643;48.824;11.422;2024-01-30T11:28:32;24.70;;;14.70;;
17052;SDS011;8643;48.824;11.422;2024-01-30T11:31:05;23.60;;;14.63;;
17052;SDS011;8643;48.824;11.422;2024-01-30T11:33:35;26.00;;;14.70;;
17052;SDS011;8643;48.824;11.422;2024-01-30T11:36:06;26.87;;;14.37;;
17052;SDS011;8643;48.824;11.422;2024-01-30T11:38:36;24.23;;;14.73;;
17052;SDS011;8643;48.824;11.422;2024-01-30T11:41:07;25.23;;;14.23;;
17052;SDS011;8643;48.824;11.422;2024-01-30T11:43:36;23.90;;;15.00;;
17052;SDS011;8643;48.824;11.422;2024-01-30T11:46:05;23.73;;;14.87;;
17052;SDS011;8643;48.824;11.422;2024-01-30T11:48:35;28.00;;;15.37;;
17052;SDS011;8643;48.824;11.422;2024-01-30T11:51:05;27.13;;;14.63;;
17052;SDS011;8643;48.824;11.422;2024-01-30T11:53:34;24.40;;;14.83;;
17052;SDS011;8643;48.824;11.422;2024-01-30T11:56:05;26.73;;;14.80;;
17052;SDS011;8643;48.824;11.422;2024-01-30T11:58:35;22.73;;;14.77;;
17052;SDS011;8643;48.824;11.422;2024-01-30T12:01:03;26.97;;;14.63;;
17052;SDS011;8643;48.824;11.422;2024-01-30T12:03:32;22.03;;;14.47;;
17052;SDS011;8643;48.824;11.422;2024-01-30T12:06:02;27.67;;;15.10;;
17052;SDS011;8643;48.824;11.422;2024-01-30T12:08:33;27.40;;;16.13;;
17052;SDS011;8643;48.824;11.422;2024-01-30T12:11:02;28.80;;;16.03;;
17052;SDS011;8643;48.824;11.422;2024-01-30T12:13:32;26.30;;;15.33;;
17052;SDS011;8643;48.824;11.422;2024-01-30T12:16:00;26.07;;;16.00;;
17052;SDS011;8643;48.824;11.422;2024-01-30T12:18:29;23.80;;;14.70;;
17052;SDS011;8643;48.824;11.422;2024-01-30T12:20:58;24.50;;;14.20;;
17052;SDS011;8643;48.824;11.422;2024-01-30T12:23:27;23.77;;;14.30;;
17052;SDS011;8643;48.824;11.422;2024-01-30T12:25:58;21.07;;;13.93;;
17052;SDS011;8643;48.824;11.422;2024-01-30T12:28:26;29.47;;;15.23;;
17052;SDS011;8643;48.824;11.422;2024-01-30T12:30:55;21.60;;;13.80;;
17052;SDS011;8643;48.824;11.422;2024-01-30T12:33:26;26.37;;;14.90;;
17052;SDS011;8643;48.824;11.422;2024-01-30T12:35:55;23.97;;;14.83;;
17052;SDS011;8643;48.824;11.422;2024-01-30T12:38:29;27.80;;;15.80;;
17052;SDS011;8643;48.824;11.422;2024-01-30T12:40:59;22.57;;;14.13;;
17052;SDS011;8643;48.824;11.422;2024-01-30T12:43:29;24.40;;;15.27;;
17052;SDS011;8643;48.824;11.422;2024-01-30T12:46:05;23.67;;;14.40;;
17052;SDS011;8643;48.824;11.422;2024-01-30T12:48:34;25.37;;;14.57;;
17052;SDS011;8643;48.824;11.422;2024-01-30T12:51:03;28.73;;;15.00;;
17052;SDS011;8643;48.824;11.422;2024-01-30T12:53:32;22.60;;;15.03;;
17052;SDS011;8643;48.824;11.422;2024-01-30T12:56:02;24.43;;;15.30;;
17052;SDS011;8643;48.824;11.422;2024-01-30T12:58:31;24.97;;;15.27;;
17052;SDS011;8643;48.824;11.422;2024-01-30T13:00:59;25.50;;;15.67;;
17052;SDS011;8643;48.824;11.422;2024-01-30T13:03:29;28.67;;;16.60;;
17052;SDS011;8643;48.824;11.422;2024-01-30T13:05:58;26.60;;;15.57;;
17052;SDS011;8643;48.824;11.422;2024-01-30T13:08:27;27.53;;;14.90;;
17052;SDS011;8643;48.824;11.422;2024-01-30T13:10:56;23.80;;;15.47;;
17052;SDS011;8643;48.824;11.422;2024-01-30T13:13:25;28.00;;;15.07;;
17052;SDS011;8643;48.824;11.422;2024-01-30T13:15:54;24.10;;;14.17;;
17052;SDS011;8643;48.824;11.422;2024-01-30T13:18:22;27.00;;;16.03;;
17052;SDS011;8643;48.824;11.422;2024-01-30T13:20:51;28.47;;;16.70;;
17052;SDS011;8643;48.824;11.422;2024-01-30T13:23:20;29.80;;;15.87;;
17052;SDS011;8643;48.824;11.422;2024-01-30T13:25:49;27.47;;;16.53;;
17052;SDS011;8643;48.824;11.422;2024-01-30T13:28:17;27.97;;;16.87;;
17052;SDS011;8643;48.824;11.422;2024-01-30T13:30:47;28.30;;;16.30;;
17052;SDS011;8643;48.824;11.422;2024-01-30T13:33:16;32.30;;;17.63;;
17052;SDS011;8643;48.824;11.422;2024-01-30T13:35:45;29.20;;;16.47;;
17052;SDS011;8643;48.824;11.422;2024-01-30T13:38:13;24.70;;;15.60;;
17052;SDS011;8643;48.824;11.422;2024-01-30T13:40:42;25.90;;;14.90;;
17052;SDS011;8643;48.824;11.422;2024-01-30T13:43:11;26.33;;;14.73;;
17052;SDS011;8643;48.824;11.422;2024-01-30T13:45:39;22.00;;;14.60;;
17052;SDS011;8643;48.824;11.422;2024-01-30T13:48:10;22.53;;;14.80;;
17052;SDS011;8643;48.824;11.422;2024-01-30T13:50:38;24.43;;;14.97;;
17052;SDS011;8643;48.824;11.422;2024-01-30T13:53:07;23.60;;;14.60;;
17052;SDS011;8643;48.824;11.422;2024-01-30T13:55:36;21.55;;;14.70;;
17052;SDS011;8643;48.824;11.422;2024-01-30T13:58:04;23.03;;;13.73;;
17052;SDS011;8643;48.824;11.422;2024-01-30T14:00:33;21.27;;;13.70;;
17052;SDS011;8643;48.824;11.422;2024-01-30T14:03:02;25.40;;;14.85;;
17052;SDS011;8643;48.824;11.422;2024-01-30T14:05:32;21.92;;;14.20;;
17052;SDS011;8643;48.824;11.422;2024-01-30T14:08:01;21.50;;;14.50;;
17052;SDS011;8643;48.824;11.422;2024-01-30T14:10:32;23.90;;;14.03;;
17052;SDS011;8643;48.824;11.422;2024-01-30T14:13:00;25.60;;;14.03;;
17052;SDS011;8643;48.824;11.422;2024-01-30T14:15:29;22.20;;;14.07;;
17052;SDS011;8643;48.824;11.422;2024-01-30T14:17:58;23.60;;;14.40;;
17052;SDS011;8643;48.824;11.422;2024-01-30T14:20:27;24.40;;;14.73;;
17052;SDS011;8643;48.824;11.422;2024-01-30T14:22:57;23.17;;;14.50;;
17052;SDS011;8643;48.824;11.422;2024-01-30T14:25:25;22.23;;;13.87;;
17052;SDS011;8643;48.824;11.422;2024-01-30T14:27:54;23.87;;;14.90;;
17052;SDS011;8643;48.824;11.422;2024-01-30T14:30:23;21.40;;;13.57;;
17052;SDS011;8643;48.824;11.422;2024-01-30T14:32:51;19.77;;;13.17;;
17052;SDS011;8643;48.824;11.422;2024-01-30T14:35:20;27.70;;;14.33;;
17052;SDS011;8643;48.824;11.422;2024-01-30T14:37:48;22.03;;;14.27;;